createdAt,value
2019-02-23T00:01:25.744Z,99.90
2019-02-23T00:03:55.416Z,99.90
2019-02-23T00:06:29.710Z,99.90
2019-02-23T00:08:56.688Z,99.90
2019-02-23T00:11:26.371Z,99.90
2019-02-23T00:13:55.871Z,99.90
2019-02-23T00:16:25.697Z,99.90
2019-02-23T00:18:55.299Z,99.90
2019-02-23T00:21:25.620Z,99.90
2019-02-23T00:23:55.377Z,99.90
2019-02-23T00:26:25.678Z,99.90
2019-02-23T00:28:55.371Z,99.90
2019-02-23T00:31:25.653Z,99.90
2019-02-23T00:33:55.383Z,99.90
2019-02-23T00:36:25.681Z,99.90
2019-02-23T00:38:55.298Z,99.90
2019-02-23T00:41:25.637Z,99.90
2019-02-23T00:43:55.468Z,99.90
2019-02-23T00:46:25.616Z,99.90
2019-02-23T00:48:55.402Z,99.90
2019-02-23T00:51:25.719Z,99.90
2019-02-23T00:53:55.435Z,99.90
2019-02-23T00:56:25.700Z,99.90
2019-02-23T00:58:55.252Z,99.90
2019-02-23T01:01:25.784Z,99.90
2019-02-23T01:03:55.442Z,99.90
2019-02-23T01:06:25.645Z,99.90
2019-02-23T01:08:55.090Z,99.90
2019-02-23T01:11:25.731Z,99.90
2019-02-23T01:13:55.453Z,99.90
2019-02-23T01:16:25.749Z,99.90
2019-02-23T01:18:55.545Z,99.90
2019-02-23T01:21:25.739Z,99.90
2019-02-23T01:23:55.313Z,99.90
2019-02-23T01:26:25.660Z,99.90
2019-02-23T01:28:55.444Z,99.90
2019-02-23T01:31:25.760Z,99.90
2019-02-23T01:33:55.447Z,99.90
2019-02-23T01:36:25.734Z,99.90
2019-02-23T01:38:55.200Z,99.90
2019-02-23T01:41:25.759Z,99.90
2019-02-23T01:43:55.506Z,99.90
2019-02-23T01:46:25.720Z,99.90
2019-02-23T01:48:55.515Z,99.90
2019-02-23T01:51:25.860Z,99.90
2019-02-23T01:53:55.550Z,99.90
2019-02-23T01:56:25.821Z,99.90
2019-02-23T01:58:55.599Z,99.90
2019-02-23T02:01:25.786Z,99.90
2019-02-23T02:03:55.602Z,99.90
2019-02-23T02:06:25.946Z,99.90
2019-02-23T02:08:55.535Z,99.90
2019-02-23T02:11:26.040Z,99.90
2019-02-23T02:13:55.615Z,99.90
2019-02-23T02:16:25.879Z,99.90
2019-02-23T02:18:55.563Z,99.90
2019-02-23T02:21:25.835Z,99.90
2019-02-23T02:23:55.276Z,99.90
2019-02-23T02:26:25.899Z,99.90
2019-02-23T02:28:55.339Z,99.90
2019-02-23T02:31:25.871Z,99.90
2019-02-23T02:34:06.577Z,99.90
2019-02-23T02:36:55.504Z,99.90
2019-02-23T02:39:39.060Z,99.90
2019-02-23T02:42:21.130Z,99.90
2019-02-23T02:45:02.751Z,99.90
2019-02-23T02:47:45.698Z,99.90
2019-02-23T02:50:27.787Z,99.90
2019-02-23T02:53:09.365Z,99.90
2019-02-23T02:55:49.330Z,99.90
2019-02-23T02:58:38.129Z,99.90
2019-02-23T03:01:28.590Z,99.90
2019-02-23T03:04:37.117Z,99.90
2019-02-23T03:07:27.568Z,99.90
2019-02-23T03:10:18.096Z,99.90
2019-02-23T03:13:08.548Z,99.90
2019-02-23T03:15:59.281Z,99.90
2019-02-23T03:18:49.748Z,99.90
2019-02-23T03:21:40.224Z,99.90
2019-02-23T03:24:48.802Z,99.90
2019-02-23T03:27:39.275Z,99.90
2019-02-23T03:30:28.112Z,99.90
2019-02-23T03:33:17.164Z,99.90
2019-02-23T03:36:07.641Z,99.90
2019-02-23T03:39:16.170Z,99.90
2019-02-23T03:42:06.653Z,99.90
2019-02-23T03:44:57.291Z,99.90
2019-02-23T03:47:47.776Z,99.90
2019-02-23T03:50:48.619Z,99.90
2019-02-23T03:53:48.527Z,99.90
2019-02-23T03:56:58.343Z,99.90
2019-02-23T03:59:48.756Z,99.90
2019-02-23T04:02:39.300Z,99.90
2019-02-23T04:05:47.574Z,99.90
2019-02-23T04:08:31.394Z,99.90
2019-02-23T04:11:13.591Z,99.90
2019-02-23T04:13:55.053Z,99.90
2019-02-23T04:16:38.644Z,99.90
2019-02-23T04:19:20.468Z,99.90
2019-02-23T04:22:02.701Z,99.90
2019-02-23T04:24:44.521Z,99.90
2019-02-23T04:27:26.727Z,99.90
2019-02-23T04:30:08.681Z,99.90
2019-02-23T04:32:50.493Z,99.90
2019-02-23T04:35:32.063Z,99.90
2019-02-23T04:38:14.020Z,99.90
2019-02-23T04:40:55.833Z,99.90
2019-02-23T04:43:38.612Z,99.90
2019-02-23T04:46:18.449Z,99.90
2019-02-23T04:49:07.338Z,99.90
2019-02-23T04:51:57.777Z,99.90
2019-02-23T04:54:48.465Z,99.90
2019-02-23T04:57:38.916Z,99.90
2019-02-23T05:00:29.344Z,99.90
2019-02-23T05:03:19.809Z,99.90
2019-02-23T05:06:03.748Z,99.90
2019-02-23T05:08:45.423Z,99.90
2019-02-23T05:11:27.658Z,99.90
2019-02-23T05:14:10.080Z,99.90
2019-02-23T05:16:51.860Z,99.90
2019-02-23T05:19:33.749Z,99.90
2019-02-23T05:22:15.748Z,99.90
2019-02-23T05:24:57.381Z,99.90
2019-02-23T05:27:39.915Z,99.90
2019-02-23T05:30:21.526Z,99.90
2019-02-23T05:33:03.170Z,99.90
2019-02-23T05:35:45.880Z,99.90
2019-02-23T05:38:27.782Z,99.90
2019-02-23T05:41:09.472Z,99.90
2019-02-23T05:43:51.369Z,99.90
2019-02-23T05:46:33.530Z,99.90
2019-02-23T05:49:15.805Z,99.90
2019-02-23T05:51:57.820Z,99.90
2019-02-23T05:54:40.226Z,99.90
2019-02-23T05:57:21.842Z,99.90
2019-02-23T06:00:03.882Z,99.90
2019-02-23T06:02:45.868Z,99.90
2019-02-23T06:05:27.601Z,99.90
2019-02-23T06:08:09.664Z,99.90
2019-02-23T06:10:49.519Z,99.90
2019-02-23T06:13:38.487Z,99.90
2019-02-23T06:16:46.755Z,99.90
2019-02-23T06:19:37.463Z,99.90
2019-02-23T06:22:46.840Z,99.90
2019-02-23T06:25:55.691Z,99.90
2019-02-23T06:28:45.703Z,99.90
2019-02-23T06:31:53.968Z,99.90
2019-02-23T06:34:45.728Z,99.90
2019-02-23T06:37:36.147Z,99.90
2019-02-23T06:40:26.647Z,99.90
2019-02-23T06:43:17.537Z,99.90
2019-02-23T06:46:25.731Z,99.90
2019-02-23T06:49:16.432Z,99.90
2019-02-23T06:52:06.840Z,99.90
2019-02-23T06:54:58.477Z,99.90
2019-02-23T06:58:07.506Z,99.90
2019-02-23T07:04:10.868Z,99.90
2019-02-23T07:06:54.528Z,99.90
2019-02-23T07:09:36.112Z,99.90
2019-02-23T07:12:18.296Z,99.90
2019-02-23T07:15:00.343Z,99.90
2019-02-23T07:17:42.109Z,99.90
2019-02-23T07:20:23.767Z,99.90
2019-02-23T07:23:06.112Z,99.90
2019-02-23T07:25:47.557Z,99.90
2019-02-23T07:28:29.201Z,99.90
2019-02-23T07:31:11.283Z,99.90
2019-02-23T07:33:53.178Z,99.90
2019-02-23T07:36:34.887Z,99.90
2019-02-23T07:39:17.166Z,99.90
2019-02-23T07:41:58.736Z,99.90
2019-02-23T07:44:40.442Z,99.90
2019-02-23T07:47:22.888Z,99.90
2019-02-23T07:50:04.895Z,99.90
2019-02-23T07:52:46.638Z,99.90
2019-02-23T07:55:28.457Z,99.90
2019-02-23T07:58:10.889Z,99.90
2019-02-23T08:00:53.091Z,99.90
2019-02-23T08:03:34.804Z,99.90
2019-02-23T08:06:17.168Z,99.90
2019-02-23T08:08:59.803Z,99.90
2019-02-23T08:14:44.761Z,99.90
2019-02-23T08:17:14.366Z,99.90
2019-02-23T08:19:43.794Z,99.90
2019-02-23T08:22:13.220Z,89.00
2019-02-23T08:24:42.645Z,93.20
2019-02-23T08:27:12.199Z,97.40
2019-02-23T08:29:41.548Z,83.00
2019-02-23T08:32:11.248Z,78.60
2019-02-23T08:34:40.668Z,80.60
2019-02-23T08:37:29.961Z,69.70
2019-02-23T08:40:20.685Z,72.30
2019-02-23T08:42:51.559Z,72.40
2019-02-23T08:45:21.363Z,67.70
2019-02-23T08:47:50.831Z,68.00
2019-02-23T08:50:23.997Z,64.30
2019-02-23T08:52:53.489Z,62.60
2019-02-23T08:55:23.226Z,61.10
2019-02-23T08:57:55.297Z,61.50
2019-02-23T09:00:25.813Z,60.10
2019-02-23T09:02:55.421Z,59.30
2019-02-23T09:05:25.754Z,58.30
2019-02-23T09:07:55.331Z,57.60
2019-02-23T09:10:26.411Z,56.80
2019-02-23T09:12:59.141Z,57.30
2019-02-23T09:15:31.089Z,55.90
2019-02-23T09:18:04.704Z,56.40
2019-02-23T09:20:34.708Z,56.80
2019-02-23T09:23:04.327Z,56.60
2019-02-23T09:25:33.802Z,55.00
2019-02-23T09:28:03.351Z,53.90
2019-02-23T09:30:32.853Z,55.30
2019-02-23T09:33:02.433Z,55.40
2019-02-23T09:35:31.873Z,53.80
2019-02-23T09:38:01.567Z,51.90
2019-02-23T09:40:31.618Z,66.00
2019-02-23T09:43:01.228Z,84.70
2019-02-23T09:45:30.661Z,69.30
2019-02-23T09:48:00.376Z,65.80
2019-02-23T09:50:29.795Z,63.30
2019-02-23T09:52:59.289Z,63.50
2019-02-23T09:55:28.837Z,59.90
2019-02-23T09:57:58.318Z,62.50
2019-02-23T10:00:27.722Z,60.90
2019-02-23T10:02:57.354Z,75.90
2019-02-23T10:05:26.773Z,64.30
2019-02-23T10:07:56.377Z,59.50
2019-02-23T10:10:26.563Z,58.60
2019-02-23T10:12:55.976Z,57.50
2019-02-23T10:15:26.606Z,60.10
2019-02-23T10:17:56.374Z,57.80
2019-02-23T10:20:26.621Z,59.30
2019-02-23T10:22:56.309Z,61.40
2019-02-23T10:25:26.638Z,59.70
2019-02-23T10:27:56.290Z,62.30
2019-02-23T10:30:26.633Z,66.50
2019-02-23T10:32:56.329Z,58.80
2019-02-23T10:35:26.627Z,68.00
2019-02-23T10:37:56.359Z,73.00
2019-02-23T10:40:26.607Z,73.50
2019-02-23T10:42:56.082Z,86.10
2019-02-23T10:45:26.599Z,80.00
2019-02-23T10:47:56.335Z,80.70
2019-02-23T10:50:27.256Z,74.90
2019-02-23T10:52:56.706Z,72.00
2019-02-23T10:55:26.983Z,80.20
2019-02-23T10:57:56.549Z,69.10
2019-02-23T11:00:26.717Z,68.20
2019-02-23T11:02:56.353Z,73.60
2019-02-23T11:05:26.685Z,75.00
2019-02-23T11:07:56.379Z,73.50
2019-02-23T11:10:26.686Z,82.00
2019-02-23T11:13:01.190Z,71.80
2019-02-23T11:15:30.856Z,98.60
2019-02-23T11:18:02.968Z,99.90
2019-02-23T11:20:32.815Z,93.50
2019-02-23T11:23:02.578Z,94.50
2019-02-23T11:25:32.379Z,90.10
2019-02-23T11:28:01.918Z,79.20
2019-02-23T11:30:31.610Z,94.20
2019-02-23T11:33:01.120Z,98.70
2019-02-23T11:35:30.767Z,86.40
2019-02-23T11:38:00.473Z,89.70
2019-02-23T11:40:29.909Z,72.40
2019-02-23T11:42:59.526Z,89.90
2019-02-23T11:45:30.901Z,72.80
2019-02-23T11:48:00.121Z,67.60
2019-02-23T11:50:29.658Z,74.90
2019-02-23T11:53:00.208Z,64.40
2019-02-23T11:55:30.039Z,66.00
2019-02-23T11:57:59.574Z,65.60
2019-02-23T12:00:28.950Z,63.20
2019-02-23T12:02:58.523Z,61.00
2019-02-23T12:05:27.977Z,60.60
2019-02-23T12:07:57.539Z,57.80
2019-02-23T12:10:27.026Z,56.00
2019-02-23T12:12:56.554Z,55.40
2019-02-23T12:15:26.800Z,53.00
2019-02-23T12:17:56.456Z,55.00
2019-02-23T12:20:26.755Z,51.30
2019-02-23T12:22:56.278Z,54.50
2019-02-23T12:25:26.781Z,51.50
2019-02-23T12:27:56.746Z,99.90
2019-02-23T12:30:27.764Z,68.60
2019-02-23T12:32:57.501Z,52.30
2019-02-23T12:35:26.975Z,50.30
2019-02-23T12:37:56.797Z,44.20
2019-02-23T12:40:26.945Z,44.90
2019-02-23T12:42:56.593Z,44.10
2019-02-23T12:45:28.481Z,45.70
2019-02-23T12:47:58.176Z,46.10
2019-02-23T12:50:27.742Z,46.00
2019-02-23T12:52:59.661Z,44.90
2019-02-23T12:55:28.854Z,45.30
2019-02-23T12:57:58.751Z,44.30
2019-02-23T13:00:28.670Z,44.90
2019-02-23T13:02:58.237Z,45.80
2019-02-23T13:05:27.759Z,43.30
2019-02-23T13:07:57.347Z,44.00
2019-02-23T13:10:27.000Z,43.80
2019-02-23T13:13:14.504Z,41.10
2019-02-23T13:15:50.005Z,40.90
2019-02-23T13:18:22.873Z,42.50
2019-02-23T13:20:55.782Z,43.10
2019-02-23T13:23:47.296Z,43.40
2019-02-23T13:26:28.814Z,41.90
2019-02-23T13:29:25.573Z,42.70
2019-02-23T13:32:25.435Z,39.90
2019-02-23T13:35:26.127Z,38.50
2019-02-23T13:38:16.898Z,40.10
2019-02-23T13:40:55.490Z,39.60
2019-02-23T13:43:42.919Z,42.80
2019-02-23T13:46:27.431Z,41.80
2019-02-23T13:49:09.720Z,39.90
2019-02-23T13:52:03.303Z,40.90
2019-02-23T13:54:55.180Z,40.30
2019-02-23T13:57:54.931Z,39.20
2019-02-23T14:00:45.125Z,38.00
2019-02-23T14:03:32.881Z,36.60
2019-02-23T14:06:20.533Z,35.50
2019-02-23T14:09:20.249Z,32.90
2019-02-23T14:11:55.681Z,39.30
2019-02-23T14:14:28.357Z,37.00
2019-02-23T14:17:01.093Z,36.20
2019-02-23T14:19:40.193Z,33.00
2019-02-23T14:22:18.893Z,31.90
2019-02-23T14:25:16.824Z,29.00
2019-02-23T14:28:08.740Z,29.10
2019-02-23T14:30:56.292Z,29.50
2019-02-23T14:33:37.616Z,26.30
2019-02-23T14:36:29.731Z,28.90
2019-02-23T14:39:35.427Z,30.40
2019-02-23T14:42:11.066Z,26.40
2019-02-23T14:44:44.114Z,25.40
2019-02-23T14:47:33.242Z,25.80
2019-02-23T14:50:29.744Z,26.90
2019-02-23T14:53:35.539Z,26.40
2019-02-23T14:56:16.916Z,27.30
2019-02-23T14:58:50.010Z,27.20
2019-02-23T15:01:31.952Z,26.80
2019-02-23T15:04:34.787Z,25.90
2019-02-23T15:07:32.793Z,24.00
2019-02-23T15:10:14.319Z,23.90
2019-02-23T15:12:55.930Z,23.10
2019-02-23T15:15:53.379Z,23.20
2019-02-23T15:18:46.600Z,22.70
2019-02-23T15:21:31.252Z,22.10
2019-02-23T15:24:26.702Z,22.30
2019-02-23T15:27:22.671Z,22.00
2019-02-23T15:30:19.040Z,21.40
2019-02-23T15:32:57.212Z,22.10
2019-02-23T15:35:39.045Z,21.90
2019-02-23T15:38:18.043Z,22.10
2019-02-23T15:41:21.149Z,22.50
2019-02-23T15:43:59.788Z,23.40
2019-02-23T15:46:41.275Z,22.90
2019-02-23T15:49:30.777Z,24.30
2019-02-23T15:52:01.326Z,22.90
2019-02-23T15:54:30.978Z,24.10
2019-02-23T15:57:00.817Z,24.40
2019-02-23T15:59:30.293Z,25.50
2019-02-23T16:01:59.828Z,27.00
2019-02-23T16:04:29.210Z,27.60
2019-02-23T16:09:21.703Z,29.80
2019-02-23T16:11:51.188Z,32.90
2019-02-23T16:14:20.878Z,33.70
2019-02-23T16:16:50.429Z,36.00
2019-02-23T16:19:19.873Z,36.20
2019-02-23T16:21:49.295Z,37.00
2019-02-23T16:24:18.919Z,37.50
2019-02-23T16:26:48.292Z,38.90
2019-02-23T16:29:17.859Z,39.90
2019-02-23T16:31:47.327Z,40.30
2019-02-23T16:34:16.904Z,40.10
2019-02-23T16:36:46.312Z,40.30
2019-02-23T16:39:15.926Z,40.50
2019-02-23T16:41:45.350Z,40.00
2019-02-23T16:44:15.054Z,40.40
2019-02-23T16:46:46.440Z,40.70
2019-02-23T16:49:15.923Z,41.50
2019-02-23T16:51:45.388Z,42.30
2019-02-23T16:54:14.900Z,43.80
2019-02-23T16:56:44.332Z,44.40
2019-02-23T16:59:14.014Z,45.60
2019-02-23T17:01:43.588Z,46.60
2019-02-23T17:04:12.997Z,47.50
2019-02-23T17:06:42.491Z,47.90
2019-02-23T17:09:12.077Z,47.30
2019-02-23T17:11:41.534Z,47.60
2019-02-23T17:14:10.964Z,48.00
2019-02-23T17:16:40.446Z,48.10
2019-02-23T17:19:09.969Z,48.10
2019-02-23T17:21:39.443Z,48.90
2019-02-23T17:24:08.990Z,48.90
2019-02-23T17:26:38.434Z,49.10
2019-02-23T17:29:07.974Z,49.70
2019-02-23T17:31:37.398Z,49.70
2019-02-23T17:34:07.043Z,49.50
2019-02-23T17:36:36.496Z,49.30
2019-02-23T17:39:06.044Z,50.50
2019-02-23T17:41:35.539Z,50.40
2019-02-23T17:44:05.042Z,50.00
2019-02-23T17:46:36.513Z,50.20
2019-02-23T17:49:06.015Z,49.60
2019-02-23T17:51:35.500Z,49.20
2019-02-23T17:54:04.981Z,50.00
2019-02-23T17:56:34.405Z,49.30
2019-02-23T17:59:03.989Z,50.00
2019-02-23T18:01:33.414Z,50.90
2019-02-23T18:04:03.004Z,49.70
2019-02-23T18:06:32.468Z,48.90
2019-02-23T18:09:01.986Z,50.50
2019-02-23T18:11:31.441Z,51.20
2019-02-23T18:14:00.997Z,49.80
2019-02-23T18:16:31.140Z,50.40
2019-02-23T18:19:00.597Z,50.70
2019-02-23T18:21:30.163Z,49.80
2019-02-23T18:23:59.586Z,49.60
2019-02-23T18:26:29.350Z,48.90
2019-02-23T18:28:59.024Z,49.00
2019-02-23T18:31:28.640Z,48.20
2019-02-23T18:33:58.230Z,47.80
2019-02-23T18:36:27.782Z,47.60
2019-02-23T18:38:57.243Z,47.80
2019-02-23T18:41:27.374Z,48.30
2019-02-23T18:43:57.106Z,47.90
2019-02-23T18:46:27.299Z,47.80
2019-02-23T18:48:56.771Z,48.00
2019-02-23T18:51:27.312Z,48.20
2019-02-23T18:53:56.728Z,48.60
2019-02-23T18:56:29.661Z,48.50
2019-02-23T18:58:58.413Z,48.30
2019-02-23T19:01:27.774Z,48.30
2019-02-23T19:03:57.162Z,48.40
2019-02-23T19:06:27.356Z,49.40
2019-02-23T19:08:57.091Z,49.30
2019-02-23T19:11:27.429Z,49.20
2019-02-23T19:13:57.105Z,49.60
2019-02-23T19:16:27.382Z,50.40
2019-02-23T19:18:57.106Z,50.20
2019-02-23T19:21:27.364Z,50.70
2019-02-23T19:23:56.780Z,50.90
2019-02-23T19:26:27.425Z,51.00
2019-02-23T19:28:57.107Z,50.50
2019-02-23T19:31:27.400Z,50.60
2019-02-23T19:33:57.162Z,50.20
2019-02-23T19:36:27.461Z,51.10
2019-02-23T19:38:57.122Z,50.70
2019-02-23T19:41:27.423Z,50.40
2019-02-23T19:43:57.138Z,50.40
2019-02-23T19:46:27.433Z,50.10
2019-02-23T19:48:57.067Z,50.00
2019-02-23T19:51:27.381Z,50.40
2019-02-23T19:53:58.276Z,50.60
2019-02-23T19:56:28.131Z,50.10
2019-02-23T19:58:57.560Z,50.10
2019-02-23T20:01:27.464Z,49.80
2019-02-23T20:03:57.173Z,50.80
2019-02-23T20:06:27.405Z,51.20
2019-02-23T20:08:56.845Z,50.90
2019-02-23T20:11:27.448Z,51.00
2019-02-23T20:13:57.171Z,51.30
2019-02-23T20:16:27.480Z,50.90
2019-02-23T20:18:57.144Z,51.30
2019-02-23T20:21:27.477Z,51.10
2019-02-23T20:23:57.141Z,51.10
2019-02-23T20:26:27.489Z,50.60
2019-02-23T20:28:57.206Z,50.70
2019-02-23T20:31:27.473Z,50.90
2019-02-23T20:33:57.205Z,51.10
2019-02-23T20:36:27.483Z,50.70
2019-02-23T20:38:57.138Z,51.00
2019-02-23T20:41:27.490Z,51.10
2019-02-23T20:43:56.854Z,50.30
2019-02-23T20:46:27.503Z,50.10
2019-02-23T20:48:57.251Z,50.10
2019-02-23T20:51:27.469Z,50.20
2019-02-23T20:53:56.950Z,50.30
2019-02-23T20:56:27.533Z,50.30
2019-02-23T20:58:57.174Z,50.60
2019-02-23T21:01:27.559Z,50.40
2019-02-23T21:03:57.369Z,50.70
2019-02-23T21:06:27.611Z,50.70
2019-02-23T21:08:57.286Z,50.80
2019-02-23T21:11:27.551Z,50.60
2019-02-23T21:13:57.244Z,50.10
2019-02-23T21:16:27.634Z,49.90
2019-02-23T21:18:57.327Z,49.80
2019-02-23T21:21:27.607Z,51.50
2019-02-23T21:23:57.299Z,50.80
2019-02-23T21:26:27.898Z,50.60
2019-02-23T21:28:57.580Z,50.50
2019-02-23T21:31:27.639Z,50.40
2019-02-23T21:33:57.314Z,50.60
2019-02-23T21:36:27.648Z,50.80
2019-02-23T21:38:57.354Z,50.90
2019-02-23T21:41:27.708Z,51.20
2019-02-23T21:44:17.212Z,51.70
2019-02-23T21:47:07.895Z,52.60
2019-02-23T21:49:39.723Z,52.10
2019-02-23T21:52:09.355Z,52.30
2019-02-23T21:54:38.830Z,52.80
2019-02-23T21:57:08.387Z,52.50
2019-02-23T21:59:37.881Z,52.10
2019-02-23T22:02:07.551Z,51.70
2019-02-23T22:04:37.557Z,51.30
2019-02-23T22:07:06.980Z,51.80
2019-02-23T22:09:36.544Z,52.00
2019-02-23T22:12:05.966Z,51.70
2019-02-23T22:14:35.557Z,51.30
2019-02-23T22:17:05.667Z,50.90
2019-02-23T22:19:35.429Z,50.60
2019-02-23T22:22:04.827Z,50.50
2019-02-23T22:24:34.591Z,50.70
2019-02-23T22:27:04.375Z,50.80
2019-02-23T22:29:33.834Z,51.10
2019-02-23T22:32:03.426Z,52.50
2019-02-23T22:34:32.965Z,53.70
2019-02-23T22:37:02.547Z,51.80
2019-02-23T22:39:32.625Z,51.70
2019-02-23T22:42:02.028Z,52.10
2019-02-23T22:44:31.608Z,51.50
2019-02-23T22:47:03.851Z,51.90
2019-02-23T22:49:33.591Z,51.50
2019-02-23T22:52:04.018Z,51.30
2019-02-23T22:54:33.590Z,51.20
2019-02-23T22:57:05.748Z,51.40
2019-02-23T22:59:35.496Z,51.30
2019-02-23T23:02:05.177Z,51.40
2019-02-23T23:04:34.595Z,51.10
2019-02-23T23:07:04.099Z,51.50
2019-02-23T23:09:46.317Z,51.70
2019-02-23T23:12:28.574Z,51.60
2019-02-23T23:15:10.411Z,51.30
2019-02-23T23:17:52.190Z,51.30
2019-02-23T23:20:33.795Z,51.60
2019-02-23T23:23:16.609Z,51.40
2019-02-23T23:25:58.732Z,51.30
2019-02-23T23:28:41.097Z,51.80
2019-02-23T23:31:23.297Z,51.60
2019-02-23T23:34:05.236Z,50.60
2019-02-23T23:39:27.498Z,51.60
2019-02-23T23:42:09.430Z,51.50
2019-02-23T23:44:38.961Z,51.60
2019-02-23T23:47:29.401Z,51.80
2019-02-23T23:50:19.981Z,51.60
2019-02-23T23:53:10.393Z,51.80
2019-02-23T23:56:01.146Z,51.00
2019-02-23T23:58:51.606Z,51.30
